LiveATC.Net - Listen to live air traffic control over the Internet!


ICAO: S50  IATA: S50   Airport: Auburn Municipal Airport
City: Auburn   State/Province: Washington
Country: United States   Continent: North America
KSEA METAR Weather: KSEA 220853Z 13006KT 10SM FEW008 BKN041 OVC100 14/13 A2995 RMK AO2 RAE41 SLP147 P0005 60006 T01390133 50003
S50 Flight Activity (FlightAware)
S50 Webcam:  (Airport Webcams) 
Auburn CTAF
Feed Status: UP   Listeners: 0
Listen right in your browser - requires Flash (in browser, requires Flash)
Click here to listen with your own player (launches your MP3 player)
Auburn CTAF Audio Archives
FacilityFrequency
Auburn CTAF/UNICOM122.800

Feed sponsored by: Auburn Municipal Airport

NOTICE

Unauthorized use prohibited. See LiveATC.net Terms of Service


Find LiveATC Audio Streams


Airport/ARTCC Code

Frequency Search
(e.g., 124.400, 128.75)
Site-wide search
 


Browse LiveATC Feeds
LiveATC Coverage Map
Top 50 LiveATC Feeds
Bad Weather Areas

LiveATC FAQ
Offer a LiveATC Feed
Contact LiveATC.net
Press Inquiries

LiveATC on iPhone
LiveATC on Android

Windows Phone
Windows 8/10

LiveATC Mobile
(Mobile browser)

ATC Audio Archives
Interesting Recordings

LiveATC Forums


Home Page
About LiveATC.net
Make a Donation
Terms of Use
Privacy Policy

Canadian Air Freqs

AIRMETs/SIGMETs

FAA Airport Status
Nat'l Airspace Status
Arrival Demand Charts


Server Software By:
Icecast.org
Liquidsoap